Middle Bass, Ohio
Current Conditions -  °F | °C
As of 6:13 PM on Sunday 21 Dec 2014 (Local Time) from KPCW Reporting Station
Clear Clear  
Wind Chill: 22°   Ceiling: Unl
Heat Index: 28°   Visibility: 10mi
Dew Point: 23°   Wind: 6mph
Humidity: 80%   Direction: 90°E
Pressure: 30.21"   Gusts: NA
Location:  41.68°N, 82.81°W
Report Text: KPCW 212313Z AUTO 09005KT 10SM CLR M02/M05 A3021 RMK AO2 $
Loading
Personal Weather Stations






























Interactive Weather Map New forecast layout! Learn more

10-Day Weather Forecast

Advertisements
Track Severe Weather on mobile